Time;durP1;ratioP1;P1;durP2;ratioP2;P2;SDS_P1;SDS_P2;PMS_P1;PMS_P2;Temp;Humidity;BMP_temperature;BMP_pressure;BME280_temperature;BME280_humidity;BME280_pressure;Samples;Min_cycle;Max_cycle;Signal;HPM_P1;HPM_P2
2022/01/04 00:00:21;;;;;;;;;2.25;2.25;;;;;12.39;86.68;99651.34;5003646;28;45616;-75
2022/01/04 00:02:46;;;;;;;;;2.75;2.00;;;;;12.42;86.71;99653.91;5016194;28;45454;-76
2022/01/04 00:05:12;;;;;;;;;2.00;2.00;;;;;12.45;86.32;99648.56;5016356;28;45280;-75
2022/01/04 00:07:38;;;;;;;;;4.75;3.00;;;;;12.39;87.09;99635.50;5016489;28;45338;-74
2022/01/04 00:10:07;;;;;;;;;3.75;3.75;;;;;12.41;87.29;99638.97;5016575;28;46657;-75
2022/01/04 00:15:17;;;;;;;;;3.00;2.25;;;;;12.42;86.55;99631.03;5005791;28;45210;-76
2022/01/04 00:17:43;;;;;;;;;2.75;2.75;;;;;12.37;87.25;99614.38;5013289;28;45207;-76
2022/01/04 00:20:08;;;;;;;;;2.00;2.00;;;;;12.34;86.96;99597.72;5014612;28;48013;-76
2022/01/04 00:22:34;;;;;;;;;3.50;2.00;;;;;12.40;87.28;99603.78;5017218;28;45566;-76
2022/01/04 00:24:59;;;;;;;;;4.00;2.00;;;;;12.40;86.96;99595.84;5011916;28;45468;-76
2022/01/04 00:27:34;;;;;;;;;2.50;2.00;;;;;12.32;87.16;99575.75;5015639;28;45438;-75
2022/01/04 00:30:00;;;;;;;;;2.75;2.75;;;;;12.40;87.47;99593.22;5015560;28;46398;-73
2022/01/04 00:32:25;;;;;;;;;2.00;2.00;;;;;12.34;86.75;99573.94;5017841;28;45496;-75
2022/01/04 00:34:52;;;;;;;;;2.50;1.00;;;;;12.44;87.08;99588.72;5019740;28;45380;-76
2022/01/04 00:37:17;;;;;;;;;2.25;2.25;;;;;12.40;86.87;99569.44;5020283;28;45396;-75
2022/01/04 00:39:43;;;;;;;;;1.00;1.00;;;;;12.19;87.29;99525.81;5019009;28;45378;-75
2022/01/04 00:42:08;;;;;;;;;1.00;1.00;;;;;12.33;87.44;99546.69;5019540;28;45245;-76
2022/01/04 00:44:34;;;;;;;;;0.00;0.00;;;;;12.42;86.86;99556.19;5019720;28;45379;-73
2022/01/04 00:46:59;;;;;;;;;1.75;1.00;;;;;12.39;87.13;99543.94;5020019;28;45245;-77
2022/01/04 00:49:25;;;;;;;;;0.00;0.00;;;;;12.42;86.42;99545.63;5018150;28;45479;-76
2022/01/04 00:51:53;;;;;;;;;1.00;1.00;;;;;12.36;87.20;99532.53;5019424;28;45308;-77
2022/01/04 00:54:20;;;;;;;;;0.00;0.00;;;;;12.39;86.77;99527.22;5018803;28;45445;-77
2022/01/04 00:56:47;;;;;;;;;3.00;1.00;;;;;12.16;87.91;99474.81;5017343;28;45612;-77
2022/01/04 00:59:14;;;;;;;;;0.50;0.50;;;;;12.39;87.24;99519.28;5018700;28;46253;-75
2022/01/04 01:01:40;;;;;;;;;1.00;1.00;;;;;12.44;87.33;99520.06;5017922;28;45474;-75
2022/01/04 01:04:07;;;;;;;;;0.75;0.75;;;;;12.47;87.03;99519.97;5000707;28;45478;-75
2022/01/04 01:06:33;;;;;;;;;0.00;0.00;;;;;12.37;86.84;99482.31;5019634;28;45318;-74
2022/01/04 01:08:58;;;;;;;;;0.00;0.00;;;;;12.35;86.78;99476.22;5012187;28;46372;-73
2022/01/04 01:11:25;;;;;;;;;0.25;0.25;;;;;12.46;87.23;99482.13;5005309;28;45350;-76
2022/01/04 01:13:52;;;;;;;;;0.25;0.25;;;;;12.49;86.45;99470.66;4999997;28;45415;-75
2022/01/04 01:16:17;;;;;;;;;0.00;0.00;;;;;12.64;86.84;99493.22;4999524;28;45352;-76
2022/01/04 01:18:43;;;;;;;;;0.75;0.50;;;;;12.45;87.34;99448.69;5009854;28;46385;-75
2022/01/04 01:21:09;;;;;;;;;4.00;4.00;;;;;12.65;86.39;99479.09;5018183;28;45312;-75
2022/01/04 01:23:35;;;;;;;;;8.00;6.00;;;;;12.51;84.04;99466.22;5019108;28;45241;-76
2022/01/04 01:26:02;;;;;;;;;11.00;8.50;;;;;12.54;84.47;99474.94;5018958;28;45399;-76
2022/01/04 01:28:28;;;;;;;;;7.75;7.75;;;;;12.20;84.08;99431.66;5018371;28;45188;-77
2022/01/04 01:30:53;;;;;;;;;9.00;6.75;;;;;12.21;83.20;99434.25;5018057;28;45277;-75
2022/01/04 01:33:19;;;;;;;;;5.00;5.00;;;;;12.29;82.99;99460.50;5018251;28;45466;-77
2022/01/04 01:35:45;;;;;;;;;6.00;5.25;;;;;12.34;83.17;99465.69;5018511;28;45534;-77
2022/01/04 01:38:14;;;;;;;;;6.75;6.75;;;;;12.29;82.79;99465.78;5018267;28;47348;-76
2022/01/04 01:40:40;;;;;;;;;3.00;3.00;;;;;11.95;81.95;99420.69;5017711;28;45299;-74
2022/01/04 01:43:07;;;;;;;;;3.00;3.00;;;;;12.12;82.56;99454.69;5017052;28;45201;-77
2022/01/04 01:45:33;;;;;;;;;3.00;3.00;;;;;11.77;81.50;99387.56;5018620;28;45241;-75
2022/01/04 01:47:58;;;;;;;;;3.50;3.50;;;;;11.90;81.17;99420.75;5017547;28;45442;-77
2022/01/04 01:50:24;;;;;;;;;5.00;5.00;;;;;11.90;82.13;99425.16;5017552;28;45396;-76
2022/01/04 01:52:52;;;;;;;;;2.00;1.50;;;;;11.71;81.61;99404.38;5017712;28;45411;-76
2022/01/04 01:55:20;;;;;;;;;3.00;3.00;;;;;11.67;82.35;99392.16;5018184;28;45506;-75
2022/01/04 01:57:46;;;;;;;;;2.00;2.00;;;;;11.75;82.50;99414.88;5018304;28;46007;-76
2022/01/04 02:00:15;;;;;;;;;3.00;2.00;;;;;11.73;81.75;99420.19;5017633;28;45325;-76
2022/01/04 02:02:41;;;;;;;;;2.00;2.00;;;;;11.48;82.00;99382.84;5017827;28;45315;-77
2022/01/04 02:05:07;;;;;;;;;0.00;0.00;;;;;11.49;82.72;99384.56;5018116;28;45450;-76
2022/01/04 02:07:34;;;;;;;;;2.00;2.00;;;;;11.62;83.05;99408.94;5017302;28;46699;-75
2022/01/04 02:10:04;;;;;;;;;0.50;0.50;;;;;11.54;81.94;99398.56;5017753;28;45324;-76
2022/01/04 02:12:31;;;;;;;;;1.00;1.00;;;;;11.61;82.08;99407.22;5017706;28;45344;-76
2022/01/04 02:14:57;;;;;;;;;1.50;1.50;;;;;11.37;81.63;99368.97;5018390;28;45298;-75
2022/01/04 02:17:23;;;;;;;;;2.25;2.25;;;;;11.51;82.85;99392.47;5017868;28;45376;-76
2022/01/04 02:19:48;;;;;;;;;2.50;2.25;;;;;11.46;82.32;99383.78;5017838;28;45340;-77
2022/01/04 02:22:14;;;;;;;;;3.00;3.00;;;;;11.35;82.95;99368.13;5017497;28;45407;-75
2022/01/04 02:24:39;;;;;;;;;3.00;3.00;;;;;11.32;82.89;99352.38;5018067;28;45345;-75
2022/01/04 02:27:05;;;;;;;;;2.00;2.00;;;;;11.32;83.55;99347.97;5017863;28;46409;-74
2022/01/04 02:29:30;;;;;;;;;2.50;2.50;;;;;11.39;83.39;99356.63;5017889;28;45182;-76
2022/01/04 02:31:55;;;;;;;;;1.00;1.00;;;;;11.30;84.14;99347.13;5017103;28;45424;-75
2022/01/04 02:34:21;;;;;;;;;2.25;2.25;;;;;11.19;82.68;99314.81;5018124;28;45217;-75
2022/01/04 02:36:46;;;;;;;;;4.00;3.50;;;;;11.25;82.94;99329.63;5017605;28;45537;-76
2022/01/04 02:39:12;;;;;;;;;3.00;3.00;;;;;11.25;82.33;99321.72;5017880;28;45238;-74
2022/01/04 02:41:37;;;;;;;;;2.25;2.25;;;;;11.21;83.42;99312.16;5017710;28;45388;-75
2022/01/04 02:44:04;;;;;;;;;2.75;2.75;;;;;11.28;82.80;99326.97;5017457;28;45440;-75
2022/01/04 02:46:29;;;;;;;;;3.00;3.00;;;;;11.03;83.25;99284.34;5017853;28;46602;-76
2022/01/04 02:48:55;;;;;;;;;2.50;2.00;;;;;11.28;83.80;99332.25;5016886;28;45337;-76
2022/01/04 02:51:20;;;;;;;;;2.00;2.00;;;;;11.12;83.00;99302.63;5017310;28;45324;-76
2022/01/04 02:53:45;;;;;;;;;5.25;3.00;;;;;11.08;84.33;99288.66;5016844;28;45521;-75
2022/01/04 02:56:13;;;;;;;;;2.25;2.25;;;;;11.19;83.23;99296.38;5017251;28;46046;-74
2022/01/04 02:58:39;;;;;;;;;3.75;3.75;;;;;11.20;83.61;99306.00;5016905;28;45220;-76
2022/01/04 03:01:04;;;;;;;;;4.50;2.00;;;;;10.85;83.03;99244.25;5017100;28;45311;-76
2022/01/04 03:03:31;;;;;;;;;2.50;2.50;;;;;11.11;83.20;99283.31;5016908;28;45384;-76
2022/01/04 03:05:57;;;;;;;;;1.25;1.25;;;;;10.93;83.69;99246.75;5016620;28;46467;-73
2022/01/04 03:08:24;;;;;;;;;3.25;3.25;;;;;11.07;83.27;99265.84;5016862;28;45289;-74
2022/01/04 03:10:50;;;;;;;;;5.00;3.00;;;;;11.11;83.21;99278.06;5017284;28;45372;-76
2022/01/04 03:13:16;;;;;;;;;3.25;3.25;;;;;11.03;83.46;99260.63;5017012;28;45356;-73
2022/01/04 03:15:46;;;;;;;;;2.50;2.50;;;;;11.13;84.17;99270.97;5016639;28;46129;-75
2022/01/04 03:18:12;;;;;;;;;1.75;1.75;;;;;11.12;82.53;99266.59;5017090;28;45245;-74
2022/01/04 03:20:37;;;;;;;;;3.00;3.00;;;;;11.11;83.04;99269.28;5016672;28;45182;-75
2022/01/04 03:23:08;;;;;;;;;4.25;2.75;;;;;11.05;83.90;99248.28;5017215;28;45261;-74
2022/01/04 03:25:34;;;;;;;;;1.00;1.00;;;;;11.03;83.95;99236.94;5016048;28;45305;-75
2022/01/04 03:28:00;;;;;;;;;2.25;2.25;;;;;10.96;83.58;99219.47;5016227;28;45411;-75
2022/01/04 03:30:25;;;;;;;;;2.75;2.00;;;;;10.99;84.60;99224.72;4998924;28;45380;-75
2022/01/04 03:32:50;;;;;;;;;3.75;2.25;;;;;10.94;84.06;99214.25;5016845;28;45320;-74
2022/01/04 03:35:17;;;;;;;;;2.00;2.00;;;;;10.99;83.58;99224.72;5016534;28;46402;-73
2022/01/04 03:37:43;;;;;;;;;1.00;1.00;;;;;10.97;83.65;99227.34;5016846;28;46049;-73
2022/01/04 03:40:08;;;;;;;;;2.00;2.00;;;;;11.04;83.70;99228.97;5016675;28;45479;-76
2022/01/04 03:42:34;;;;;;;;;2.00;2.00;;;;;10.94;84.07;99211.59;5016505;28;45450;-74
2022/01/04 03:44:59;;;;;;;;;1.00;1.00;;;;;11.05;84.24;99232.47;4999484;28;45644;-74
2022/01/04 03:47:25;;;;;;;;;3.75;1.50;;;;;11.02;84.19;99220.25;5014762;28;45420;-73
2022/01/04 03:49:50;;;;;;;;;1.00;1.00;;;;;10.97;83.46;99215.94;5016700;28;45316;-75
2022/01/04 03:52:16;;;;;;;;;3.25;3.25;;;;;10.96;83.23;99220.34;5016134;28;45490;-73
2022/01/04 03:54:41;;;;;;;;;3.00;1.00;;;;;10.98;83.79;99223.84;5016253;28;46131;-74
2022/01/04 03:57:07;;;;;;;;;1.25;1.25;;;;;10.82;83.65;99191.63;5016230;28;45340;-75
2022/01/04 03:59:32;;;;;;;;;1.00;1.00;;;;;10.84;84.14;99195.09;5017084;28;45332;-75
2022/01/04 04:01:57;;;;;;;;;1.00;1.00;;;;;10.83;82.67;99201.28;5016502;28;45292;-73
2022/01/04 04:04:23;;;;;;;;;0.00;0.00;;;;;10.89;83.82;99215.22;5016292;28;46583;-75
2022/01/04 04:06:48;;;;;;;;;0.25;0.25;;;;;10.84;84.48;99203.00;5017555;28;45481;-73
2022/01/04 04:09:14;;;;;;;;;1.75;0.00;;;;;10.88;82.63;99213.47;5019790;28;45486;-74
2022/01/04 04:11:39;;;;;;;;;0.25;0.25;;;;;10.76;83.27;99190.88;5019703;28;45350;-75
2022/01/04 04:14:05;;;;;;;;;1.25;1.25;;;;;10.84;84.02;99220.59;5019957;28;46175;-74
2022/01/04 04:16:32;;;;;;;;;0.25;0.25;;;;;10.77;83.69;99209.28;5019126;28;45375;-74
2022/01/04 04:18:57;;;;;;;;;0.25;0.25;;;;;10.47;83.49;99167.69;5020308;28;45206;-75
2022/01/04 04:21:22;;;;;;;;;0.00;0.00;;;;;10.59;83.57;99198.19;5019891;28;45276;-75
2022/01/04 04:23:48;;;;;;;;;0.00;0.00;;;;;10.63;83.98;99207.81;5019849;28;46474;-74
2022/01/04 04:26:13;;;;;;;;;0.00;0.00;;;;;10.60;83.78;99210.47;5018803;28;45457;-74
2022/01/04 04:28:39;;;;;;;;;0.00;0.00;;;;;10.57;83.66;99192.97;5019691;28;45700;-73
2022/01/04 04:31:05;;;;;;;;;0.00;0.00;;;;;10.70;83.66;99214.69;5019660;28;45317;-73
2022/01/04 04:33:31;;;;;;;;;0.00;0.00;;;;;10.62;84.42;99208.69;5019572;28;45348;-74
2022/01/04 04:35:56;;;;;;;;;0.00;0.00;;;;;10.65;84.22;99216.53;5018892;28;45337;-74
2022/01/04 04:38:22;;;;;;;;;0.00;0.00;;;;;10.55;83.79;99210.56;5019561;28;45658;-74
2022/01/04 04:40:47;;;;;;;;;0.00;0.00;;;;;10.51;84.12;99212.34;5015900;28;45312;-74
2022/01/04 04:43:12;;;;;;;;;0.00;0.00;;;;;10.45;84.34;99198.44;4999773;28;46343;-74
2022/01/04 04:45:38;;;;;;;;;0.00;0.00;;;;;10.39;84.15;99190.63;5009857;28;45268;-74
2022/01/04 04:48:04;;;;;;;;;0.00;0.00;;;;;10.53;84.10;99221.13;5018950;28;45335;-74
2022/01/04 04:50:29;;;;;;;;;0.00;0.00;;;;;10.47;84.39;99221.22;5019596;28;45434;-74
2022/01/04 04:52:57;;;;;;;;;0.00;0.00;;;;;10.48;84.25;99219.44;5018943;28;46001;-73
2022/01/04 04:55:22;;;;;;;;;0.00;0.00;;;;;10.53;84.12;99228.16;5019552;28;45335;-75
2022/01/04 04:57:47;;;;;;;;;0.00;0.00;;;;;10.43;84.30;99219.53;5019068;28;45269;-76
2022/01/04 05:00:14;;;;;;;;;1.00;0.00;;;;;10.55;83.80;99250.06;5020068;28;45208;-75
2022/01/04 05:02:41;;;;;;;;;0.00;0.00;;;;;10.42;84.25;99222.16;5019469;28;45388;-75
2022/01/04 05:05:07;;;;;;;;;0.00;0.00;;;;;10.44;83.48;99244.97;5018754;28;45314;-76
2022/01/04 05:07:33;;;;;;;;;0.00;0.00;;;;;10.30;83.67;99211.84;5018419;28;45860;-75
2022/01/04 05:09:59;;;;;;;;;0.00;0.00;;;;;10.46;83.70;99247.56;5019415;28;45359;-76
2022/01/04 05:12:24;;;;;;;;;0.00;0.00;;;;;10.24;83.72;99210.19;5018547;28;45208;-76
2022/01/04 05:14:49;;;;;;;;;0.00;0.00;;;;;10.32;83.75;99231.13;5019306;28;45192;-76
2022/01/04 05:17:15;;;;;;;;;0.00;0.00;;;;;10.31;83.24;99239.91;5017694;28;45531;-74
2022/01/04 05:19:41;;;;;;;;;0.00;0.00;;;;;10.35;83.22;99252.16;5019002;28;45222;-75
2022/01/04 05:22:07;;;;;;;;;0.00;0.00;;;;;10.37;83.61;99255.63;5018265;28;45174;-73
2022/01/04 05:24:33;;;;;;;;;0.00;0.00;;;;;10.23;84.11;99246.16;5018754;28;45485;-75
2022/01/04 05:26:58;;;;;;;;;0.00;0.00;;;;;10.14;84.27;99221.69;5018191;28;45313;-75
2022/01/04 05:29:24;;;;;;;;;0.00;0.00;;;;;10.20;83.71;99240.91;5018191;28;45356;-75
2022/01/04 05:31:49;;;;;;;;;0.00;0.00;;;;;10.16;84.42;99238.38;5017822;28;46198;-75
2022/01/04 05:34:14;;;;;;;;;0.00;0.00;;;;;10.32;84.41;99258.31;5018605;28;45347;-76
2022/01/04 05:36:40;;;;;;;;;0.00;0.00;;;;;10.35;83.51;99266.16;5018141;28;45474;-75
2022/01/04 05:39:05;;;;;;;;;0.00;0.00;;;;;10.13;84.19;99223.47;5018562;28;45301;-76
2022/01/04 05:41:31;;;;;;;;;0.00;0.00;;;;;10.17;83.53;99235.69;5024118;28;46301;-75
2022/01/04 05:43:57;;;;;;;;;0.00;0.00;;;;;10.23;83.37;99246.16;5022764;28;45345;-74
2022/01/04 05:46:22;;;;;;;;;0.25;0.25;;;;;10.21;83.12;99245.28;5020911;28;45300;-75
2022/01/04 05:48:48;;;;;;;;;0.00;0.00;;;;;10.12;83.87;99237.53;5018987;28;45403;-75
2022/01/04 05:51:13;;;;;;;;;0.00;0.00;;;;;10.26;83.51;99258.41;4996067;28;46147;-76
2022/01/04 05:53:38;;;;;;;;;0.75;0.75;;;;;9.98;83.52;99207.94;4999989;28;45392;-76
2022/01/04 05:56:04;;;;;;;;;0.00;0.00;;;;;10.24;83.35;99250.53;4997140;28;45843;-75
2022/01/04 05:58:30;;;;;;;;;0.00;0.00;;;;;10.23;83.46;99242.66;5003736;28;45539;-75
2022/01/04 06:00:55;;;;;;;;;0.00;0.00;;;;;10.31;82.91;99271.50;5009433;28;45483;-74
2022/01/04 06:03:21;;;;;;;;;0.00;0.00;;;;;10.24;82.65;99268.09;4997626;28;45228;-76
2022/01/04 06:05:46;;;;;;;;;1.75;1.75;;;;;10.19;82.81;99252.31;4998221;28;45798;-75
2022/01/04 06:08:12;;;;;;;;;0.00;0.00;;;;;10.22;82.25;99252.31;4998198;28;45418;-75
2022/01/04 06:10:40;;;;;;;;;1.00;1.00;;;;;10.09;82.50;99234.94;4997314;28;46199;-76
2022/01/04 06:15:31;;;;;;;;;0.75;0.75;;;;;10.15;82.27;99229.59;4997611;28;45400;-77
2022/01/04 06:17:58;;;;;;;;;2.25;2.00;;;;;10.16;82.71;99235.72;4996233;28;45412;-76
2022/01/04 06:20:24;;;;;;;;;1.00;1.00;;;;;10.25;82.29;99243.53;4997274;28;46145;-75
2022/01/04 06:22:53;;;;;;;;;2.00;2.00;;;;;10.20;82.03;99234.78;4998005;28;45438;-76
2022/01/04 06:25:21;;;;;;;;;4.00;1.00;;;;;10.27;82.79;99257.53;4996778;28;45492;-75
2022/01/04 06:27:49;;;;;;;;;0.50;0.50;;;;;10.29;82.09;99263.63;4995817;28;45585;-74
2022/01/04 06:30:16;;;;;;;;;1.00;1.00;;;;;10.26;81.95;99276.84;4996012;28;45256;-73
2022/01/04 06:32:43;;;;;;;;;1.00;1.00;;;;;10.18;81.35;99261.13;4996431;28;45466;-73
2022/01/04 06:35:10;;;;;;;;;3.00;1.00;;;;;10.26;82.63;99285.59;4996165;28;47033;-75
2022/01/04 06:37:35;;;;;;;;;1.00;1.00;;;;;10.26;82.45;99290.88;4997842;28;45328;-74
2022/01/04 06:40:00;;;;;;;;;2.75;1.75;;;;;10.09;82.03;99253.38;4996584;28;46338;-73
2022/01/04 06:42:26;;;;;;;;;2.00;2.00;;;;;10.28;81.31;99290.84;4999021;28;45414;-75
2022/01/04 06:44:51;;;;;;;;;2.00;1.25;;;;;10.17;82.17;99266.41;4997433;28;45382;-76
2022/01/04 06:47:17;;;;;;;;;0.50;0.50;;;;;10.26;82.16;99300.53;4997032;28;45298;-73
2022/01/04 06:49:42;;;;;;;;;1.00;1.00;;;;;10.24;82.08;99308.44;4999643;28;47048;-76
2022/01/04 06:52:08;;;;;;;;;1.00;1.00;;;;;10.20;82.06;99287.41;4998542;28;45385;-74
2022/01/04 06:54:34;;;;;;;;;0.25;0.25;;;;;10.07;82.06;99270.94;5017395;28;45346;-74
2022/01/04 06:56:59;;;;;;;;;1.00;1.00;;;;;10.22;81.29;99314.59;5016730;28;45267;-74
2022/01/04 06:59:25;;;;;;;;;0.25;0.25;;;;;10.03;81.54;99285.00;5016907;28;47177;-75
2022/01/04 07:01:50;;;;;;;;;3.00;1.00;;;;;10.20;81.78;99327.75;5016071;28;45463;-76
2022/01/04 07:04:16;;;;;;;;;1.75;1.75;;;;;10.19;82.16;99326.00;5017076;28;46395;-76
2022/01/04 07:06:41;;;;;;;;;2.00;2.00;;;;;10.21;82.20;99328.63;5017221;28;45503;-75
2022/01/04 07:09:08;;;;;;;;;0.25;0.25;;;;;10.26;81.21;99334.75;5016780;28;46412;-75
2022/01/04 07:11:34;;;;;;;;;2.00;2.00;;;;;10.25;81.68;99325.97;5015693;28;45522;-75
2022/01/04 07:14:00;;;;;;;;;1.00;1.00;;;;;10.17;80.74;99312.00;5015945;28;45553;-73
2022/01/04 07:16:25;;;;;;;;;2.25;1.00;;;;;10.17;81.25;99312.00;5017264;28;45265;-77
2022/01/04 07:18:51;;;;;;;;;3.00;2.00;;;;;10.14;80.92;99313.81;4998491;28;46556;-76
2022/01/04 07:21:19;;;;;;;;;1.00;1.00;;;;;10.13;81.21;99314.69;5016043;28;45412;-75
2022/01/04 07:23:48;;;;;;;;;1.75;1.00;;;;;10.12;80.93;99308.56;4999509;28;45307;-75
2022/01/04 07:26:14;;;;;;;;;1.00;1.00;;;;;10.23;80.85;99327.72;5016231;28;45439;-75
2022/01/04 07:28:48;;;;;;;;;1.25;1.25;;;;;10.21;81.25;99320.72;5015217;28;46417;-76
2022/01/04 07:31:15;;;;;;;;;1.75;1.75;;;;;10.22;80.97;99336.53;5015278;28;45578;-75
2022/01/04 07:33:41;;;;;;;;;2.50;2.50;;;;;10.10;80.91;99320.00;5015765;28;45514;-77
2022/01/04 07:36:07;;;;;;;;;2.75;2.75;;;;;10.20;81.42;99330.38;5016269;28;45380;-76
2022/01/04 07:38:33;;;;;;;;;1.00;1.00;;;;;10.16;81.22;99339.22;5015208;28;47111;-75
2022/01/04 07:40:59;;;;;;;;;1.25;1.25;;;;;10.04;79.72;99330.59;4998464;28;45790;-76
2022/01/04 07:43:24;;;;;;;;;2.00;1.00;;;;;10.13;80.19;99341.00;5005417;28;45415;-76
2022/01/04 07:45:50;;;;;;;;;1.00;1.00;;;;;10.19;79.83;99362.00;5020455;28;45253;-72
2022/01/04 07:48:16;;;;;;;;;1.25;1.25;;;;;10.22;80.80;99361.97;5020066;28;45376;-72
2022/01/04 07:50:41;;;;;;;;;2.00;0.75;;;;;10.13;79.57;99357.66;5009119;28;45238;-73
2022/01/04 07:53:07;;;;;;;;;1.75;1.75;;;;;10.13;78.97;99355.03;4999995;28;45321;-74
2022/01/04 07:55:33;;;;;;;;;0.00;0.00;;;;;10.12;78.33;99371.72;5017830;28;45334;-74
2022/01/04 07:57:59;;;;;;;;;3.00;1.25;;;;;10.07;78.83;99365.66;5019405;28;45695;-72
2022/01/04 08:00:25;;;;;;;;;1.00;1.00;;;;;10.06;79.09;99363.91;5019950;28;45280;-74
2022/01/04 08:02:51;;;;;;;;;1.75;0.75;;;;;10.15;79.47;99390.13;5014979;28;45485;-72
2022/01/04 08:05:18;;;;;;;;;5.25;2.00;;;;;10.16;79.46;99402.38;5018632;28;45528;-71
2022/01/04 08:07:44;;;;;;;;;3.25;2.50;;;;;10.06;79.06;99397.25;5010455;28;46382;-72
2022/01/04 08:10:11;;;;;;;;;6.00;3.00;;;;;10.07;78.95;99404.25;5014780;28;45717;-77
2022/01/04 08:12:37;;;;;;;;;2.50;2.50;;;;;10.18;79.48;99420.78;5012770;28;45495;-73
2022/01/04 08:15:04;;;;;;;;;4.00;4.00;;;;;10.20;79.54;99429.50;4994639;28;45948;-71
2022/01/04 08:17:31;;;;;;;;;4.00;4.00;;;;;10.13;79.31;99412.06;5018578;28;46622;-72
2022/01/04 08:19:56;;;;;;;;;3.25;3.00;;;;;10.16;78.83;99426.06;5018312;28;45459;-70
2022/01/04 08:22:22;;;;;;;;;9.00;7.25;;;;;10.26;79.40;99447.91;5017433;28;45437;-71
2022/01/04 08:24:47;;;;;;;;;6.00;4.00;;;;;10.32;79.04;99447.81;5017476;28;45553;-71
2022/01/04 08:27:13;;;;;;;;;7.00;4.00;;;;;10.30;78.99;99440.84;5015999;28;45358;-75
2022/01/04 08:29:38;;;;;;;;;6.00;4.50;;;;;10.24;78.52;99428.63;5018338;28;45749;-76
2022/01/04 08:32:04;;;;;;;;;4.75;3.00;;;;;10.24;78.22;99423.38;5017410;28;45447;-72
2022/01/04 08:34:29;;;;;;;;;3.00;2.00;;;;;10.27;77.82;99424.19;5015465;28;45376;-75
2022/01/04 08:36:55;;;;;;;;;4.25;3.00;;;;;10.25;77.07;99419.84;5017272;28;46299;-73
2022/01/04 08:39:26;;;;;;;;;8.00;7.00;;;;;10.29;78.15;99432.06;5012081;28;46104;-73
2022/01/04 08:41:55;;;;;;;;;2.00;2.00;;;;;10.42;78.31;99464.38;5017887;28;45623;-74
2022/01/04 08:44:21;;;;;;;;;1.00;1.00;;;;;10.46;77.55;99458.19;5017657;28;45442;-72
2022/01/04 08:46:46;;;;;;;;;6.50;3.50;;;;;10.37;77.34;99446.00;5017316;28;46320;-72
2022/01/04 08:49:12;;;;;;;;;2.00;2.00;;;;;10.39;76.75;99443.34;5016231;28;45320;-73
2022/01/04 08:51:37;;;;;;;;;1.00;1.00;;;;;10.28;76.04;99451.38;5016523;28;45376;-70
2022/01/04 08:54:04;;;;;;;;;1.00;1.00;;;;;10.36;77.71;99469.72;5018167;28;45213;-71
2022/01/04 08:56:30;;;;;;;;;2.75;2.00;;;;;10.34;77.17;99464.50;5015538;28;46161;-73
2022/01/04 08:58:56;;;;;;;;;1.00;1.00;;;;;10.38;76.68;99466.19;5013105;28;45526;-73
2022/01/04 09:01:22;;;;;;;;;1.50;1.50;;;;;10.34;77.33;99467.13;5017643;28;45483;-73
2022/01/04 09:03:47;;;;;;;;;1.25;1.25;;;;;10.34;77.49;99471.50;5018350;28;45450;-76
2022/01/04 09:06:13;;;;;;;;;2.25;2.00;;;;;10.32;76.80;99466.25;4998805;28;46510;-75
2022/01/04 09:08:38;;;;;;;;;1.75;1.75;;;;;10.26;76.80;99461.06;5017750;28;45403;-72
2022/01/04 09:11:04;;;;;;;;;1.00;1.00;;;;;10.33;76.87;99477.63;5017732;28;45343;-72
2022/01/04 09:13:37;;;;;;;;;1.00;0.00;;;;;10.16;76.71;99455.00;5017715;28;45412;-74
2022/01/04 09:18:43;;;;;;;;;18.50;12.75;;;;;10.35;77.66;99497.81;5016649;28;45298;-74
2022/01/04 09:21:10;;;;;;;;;4.75;3.25;;;;;10.39;76.87;99493.38;5016236;28;45537;-70
2022/01/04 09:23:35;;;;;;;;;1.75;1.00;;;;;10.30;77.23;99465.41;5016169;28;45301;-73
2022/01/04 09:26:01;;;;;;;;;2.75;2.75;;;;;10.44;76.90;99475.78;5016668;28;46211;-72
2022/01/04 09:28:27;;;;;;;;;5.75;5.75;;;;;10.31;77.56;99451.34;5015707;28;45986;-71
2022/01/04 09:30:53;;;;;;;;;7.00;4.00;;;;;10.40;77.90;99471.41;5012487;28;45591;-73
2022/01/04 09:33:19;;;;;;;;;3.50;3.50;;;;;10.44;77.51;99479.28;5015756;28;45523;-71
2022/01/04 09:35:46;;;;;;;;;5.25;5.25;;;;;10.43;76.75;99467.00;5014858;28;47552;-70
2022/01/04 09:38:12;;;;;;;;;5.50;5.50;;;;;10.47;77.30;99475.72;5016538;28;45344;-70
2022/01/04 09:40:38;;;;;;;;;3.50;3.50;;;;;10.41;76.53;99466.13;5012882;28;45432;-71
2022/01/04 09:43:05;;;;;;;;;2.00;2.00;;;;;10.47;76.45;99462.56;5015362;28;45464;-72
2022/01/04 09:45:31;;;;;;;;;3.00;1.25;;;;;10.38;76.44;99455.66;5016544;28;45524;-72
2022/01/04 09:47:57;;;;;;;;;4.75;2.00;;;;;10.41;77.07;99473.16;5014883;28;45273;-71
2022/01/04 09:50:22;;;;;;;;;1.00;1.00;;;;;10.19;76.75;99443.56;5015460;28;45755;-71
2022/01/04 09:52:49;;;;;;;;;1.00;1.00;;;;;10.34;76.93;99479.41;5017060;28;45304;-72
2022/01/04 09:55:16;;;;;;;;;1.00;1.00;;;;;10.37;77.41;99487.25;5015460;28;45432;-71
2022/01/04 09:57:43;;;;;;;;;1.00;1.00;;;;;10.42;76.69;99490.69;5013675;28;45558;-71
2022/01/04 10:00:12;;;;;;;;;1.00;1.00;;;;;10.32;76.43;99486.44;5014616;28;45238;-72
2022/01/04 10:02:37;;;;;;;;;0.50;0.50;;;;;10.30;76.31;99490.84;5014144;28;45273;-71
2022/01/04 10:05:19;;;;;;;;;3.00;2.00;;;;;10.42;76.90;99511.75;5016024;28;46607;-71
2022/01/04 10:07:46;;;;;;;;;1.00;1.00;;;;;10.44;76.81;99516.13;4995913;28;45686;-73
2022/01/04 10:10:15;;;;;;;;;2.00;1.00;;;;;10.50;77.06;99515.16;5013988;28;45308;-73
2022/01/04 10:12:50;;;;;;;;;2.00;2.00;;;;;10.43;77.35;99509.13;5014929;28;45423;-73
2022/01/04 10:15:29;;;;;;;;;2.00;2.00;;;;;10.25;76.78;99491.78;5015589;28;46330;-75
2022/01/04 10:17:56;;;;;;;;;3.00;3.00;;;;;10.51;77.46;99527.44;5015817;28;45435;-71
2022/01/04 10:20:21;;;;;;;;;7.00;4.00;;;;;10.53;77.19;99530.97;5016908;28;45253;-75
2022/01/04 10:22:47;;;;;;;;;6.50;4.75;;;;;10.46;77.53;99519.63;5011986;28;45499;-77
2022/01/04 10:25:15;;;;;;;;;3.00;3.00;;;;;10.57;76.08;99533.53;5014885;28;45984;-72
2022/01/04 10:27:51;;;;;;;;;3.75;3.75;;;;;10.54;76.88;99525.66;4998689;28;45440;-77
2022/01/04 10:30:28;;;;;;;;;2.00;2.00;;;;;10.33;75.79;99475.91;5015843;28;45403;-76
2022/01/04 10:33:07;;;;;;;;;2.75;2.75;;;;;10.42;76.60;99485.44;5015231;28;45372;-77
2022/01/04 10:35:45;;;;;;;;;3.25;2.00;;;;;10.62;76.43;99525.59;5015913;28;46815;-74
2022/01/04 10:38:36;;;;;;;;;1.50;1.50;;;;;10.69;76.15;99516.69;5015655;28;45474;-73
2022/01/04 10:41:25;;;;;;;;;2.25;1.75;;;;;10.66;76.73;99500.94;5015877;28;45483;-72
2022/01/04 10:44:01;;;;;;;;;8.00;5.25;;;;;10.75;75.72;99505.22;4998859;28;45402;-74
2022/01/04 10:46:35;;;;;;;;;2.00;2.00;;;;;10.71;76.56;99504.41;5015007;28;46776;-73
2022/01/04 10:49:02;;;;;;;;;2.25;2.00;;;;;10.70;76.54;99500.03;5013707;28;45487;-77
2022/01/04 10:51:28;;;;;;;;;3.00;1.00;;;;;10.73;76.05;99494.69;5014519;28;45440;-73
2022/01/04 10:54:00;;;;;;;;;3.25;2.00;;;;;10.76;75.97;99499.91;5013262;28;45543;-75
2022/01/04 10:56:31;;;;;;;;;1.75;1.00;;;;;10.78;75.53;99500.75;5014731;28;46072;-70
2022/01/04 10:58:59;;;;;;;;;2.00;2.00;;;;;10.63;75.79;99487.81;5014868;28;45498;-71
2022/01/04 11:01:37;;;;;;;;;4.25;4.00;;;;;10.73;75.93;99507.00;5013336;28;45578;-71
2022/01/04 11:04:03;;;;;;;;;2.00;2.00;;;;;10.70;75.23;99507.91;5013736;28;45562;-75
2022/01/04 11:06:36;;;;;;;;;1.00;1.00;;;;;10.71;75.33;99493.84;5015632;28;45505;-75
2022/01/04 11:09:03;;;;;;;;;1.75;1.00;;;;;10.63;75.40;99482.53;5015022;28;45465;-74
2022/01/04 11:11:29;;;;;;;;;2.50;2.25;;;;;10.74;75.63;99501.72;5015246;28;45640;-75
2022/01/04 11:13:54;;;;;;;;;2.00;2.00;;;;;10.78;75.48;99497.25;5016055;28;45344;-75
2022/01/04 11:16:23;;;;;;;;;3.00;3.00;;;;;10.85;74.91;99491.03;5015589;28;45293;-75
2022/01/04 11:18:52;;;;;;;;;3.00;3.00;;;;;10.83;75.34;99492.81;5014929;28;45335;-73
2022/01/04 11:21:20;;;;;;;;;2.75;1.00;;;;;10.79;75.15;99486.69;5015492;28;45406;-74
2022/01/04 11:23:47;;;;;;;;;3.00;2.00;;;;;10.85;75.34;99491.91;5008952;28;45329;-74
2022/01/04 11:26:13;;;;;;;;;2.50;2.50;;;;;10.83;76.16;99496.31;5015454;28;46583;-74
2022/01/04 11:28:43;;;;;;;;;1.50;1.50;;;;;10.86;75.53;99505.94;5015518;28;45417;-72
2022/01/04 11:31:22;;;;;;;;;2.00;2.00;;;;;10.96;75.52;99515.44;5013834;28;45466;-77
2022/01/04 11:34:06;;;;;;;;;1.75;1.00;;;;;10.99;75.53;99499.63;5014470;28;45446;-74
2022/01/04 11:36:44;;;;;;;;;6.00;3.00;;;;;11.00;74.98;99511.03;5015231;28;45289;-74
2022/01/04 11:39:38;;;;;;;;;2.00;2.00;;;;;11.01;74.44;99504.88;5014624;28;45603;-73